Time;durP1;ratioP1;P1;durP2;ratioP2;P2;SDS_P1;SDS_P2;PMS_P1;PMS_P2;Temp;Humidity;BMP_temperature;BMP_pressure;BME280_temperature;BME280_humidity;BME280_pressure;Samples;Min_cycle;Max_cycle;Signal;HPM_P1;HPM_P2
2023/09/18 00:01:47;;;;;;;27.05;19.25;;;18.60;99.90;;;;;;4993600;28;20022;-88
2023/09/18 00:04:13;;;;;;;24.05;18.35;;;18.50;99.90;;;;;;4993898;28;20145;-88
2023/09/18 00:06:39;;;;;;;26.83;20.58;;;18.50;99.90;;;;;;4993132;28;20026;-88
2023/09/18 00:09:04;;;;;;;26.58;18.50;;;18.60;99.90;;;;;;4992868;28;20478;-88
2023/09/18 00:11:30;;;;;;;22.20;18.88;;;18.50;99.90;;;;;;4993226;28;20781;-88
2023/09/18 00:13:55;;;;;;;26.98;19.70;;;18.50;99.90;;;;;;4993505;28;20050;-88
2023/09/18 00:16:21;;;;;;;23.40;19.20;;;18.50;99.90;;;;;;4992907;28;20049;-88
2023/09/18 00:18:46;;;;;;;26.85;18.70;;;18.50;99.90;;;;;;4976777;28;20062;-88
2023/09/18 00:21:12;;;;;;;26.77;19.00;;;18.50;99.90;;;;;;4976545;28;20068;-88
2023/09/18 00:23:38;;;;;;;30.90;23.40;;;18.50;99.90;;;;;;4992698;28;20031;-88
2023/09/18 00:26:04;;;;;;;31.00;24.02;;;18.50;99.90;;;;;;4993427;28;20018;-88
2023/09/18 00:28:29;;;;;;;34.92;24.83;;;18.50;99.90;;;;;;4992192;28;20427;-88
2023/09/18 00:30:55;;;;;;;31.63;24.58;;;18.50;99.90;;;;;;5008089;28;20101;-88
2023/09/18 00:33:20;;;;;;;35.53;24.90;;;18.50;99.90;;;;;;4998899;28;20065;-88
2023/09/18 00:35:48;;;;;;;33.90;26.05;;;18.50;99.90;;;;;;4993727;28;20026;-87
2023/09/18 00:38:14;;;;;;;36.00;26.73;;;18.50;99.90;;;;;;4986519;28;20034;-88
2023/09/18 00:40:39;;;;;;;41.33;28.35;;;18.50;99.90;;;;;;4967907;28;20022;-87
2023/09/18 00:43:04;;;;;;;37.60;27.67;;;18.50;99.90;;;;;;4985020;28;20376;-87
2023/09/18 00:45:30;;;;;;;42.83;28.75;;;18.50;99.90;;;;;;4992998;28;20038;-87
2023/09/18 00:47:56;;;;;;;40.17;29.08;;;18.40;99.90;;;;;;4975882;28;20034;-88
2023/09/18 00:50:22;;;;;;;41.63;32.03;;;18.40;99.90;;;;;;4977641;28;20117;-88
2023/09/18 00:52:48;;;;;;;42.33;28.45;;;18.40;99.90;;;;;;4992516;28;20501;-88
2023/09/18 00:55:14;;;;;;;41.00;28.15;;;18.40;99.90;;;;;;4975862;28;20034;-87
2023/09/18 00:57:41;;;;;;;36.75;27.08;;;18.40;99.90;;;;;;4991900;28;20037;-88
2023/09/18 01:00:07;;;;;;;40.28;28.52;;;18.40;99.90;;;;;;4991826;28;20041;-88
2023/09/18 01:02:33;;;;;;;37.53;27.50;;;18.40;99.90;;;;;;4992577;28;20033;-88
2023/09/18 01:04:59;;;;;;;39.53;30.95;;;18.40;99.90;;;;;;4991939;28;20026;-88
2023/09/18 01:07:25;;;;;;;36.15;25.58;;;18.40;99.90;;;;;;4976699;28;20030;-88
2023/09/18 01:09:51;;;;;;;35.72;25.70;;;18.40;99.90;;;;;;4990939;28;20026;-88
2023/09/18 01:12:39;;;;;;;29.27;21.38;;;18.50;99.90;;;;;;4986760;28;20503;-87
2023/09/18 01:15:14;;;;;;;25.30;19.98;;;18.50;99.90;;;;;;4969861;28;20037;-88
2023/09/18 01:17:41;;;;;;;22.20;18.10;;;18.50;99.90;;;;;;4990667;28;20027;-88
2023/09/18 01:20:10;;;;;;;33.65;21.20;;;18.50;99.90;;;;;;4970844;28;20027;-88
2023/09/18 01:22:36;;;;;;;22.02;17.20;;;18.60;99.90;;;;;;4987212;28;20034;-88
2023/09/18 01:25:02;;;;;;;24.02;18.52;;;18.60;99.90;;;;;;4986217;28;20090;-88
2023/09/18 01:27:27;;;;;;;24.38;18.67;;;18.60;99.90;;;;;;4988260;28;20061;-88
2023/09/18 01:29:53;;;;;;;25.42;18.50;;;18.60;99.90;;;;;;4974891;28;20061;-88
2023/09/18 01:32:24;;;;;;;22.70;17.73;;;18.60;99.90;;;;;;4992400;28;20084;-88
2023/09/18 01:34:53;;;;;;;21.63;14.45;;;18.60;99.90;;;;;;4975961;28;20038;-89
2023/09/18 01:37:27;;;;;;;22.35;14.55;;;18.70;99.90;;;;;;4991225;28;20034;-89
2023/09/18 01:39:54;;;;;;;19.48;14.65;;;18.70;99.90;;;;;;4975432;28;20030;-88
2023/09/18 01:42:20;;;;;;;18.90;14.20;;;18.70;99.90;;;;;;4976367;28;20033;-88
2023/09/18 01:44:47;;;;;;;19.60;13.43;;;18.80;99.90;;;;;;4992174;28;20019;-88
2023/09/18 01:47:16;;;;;;;17.55;11.90;;;18.90;99.90;;;;;;4992807;28;20026;-88
2023/09/18 01:49:42;;;;;;;16.85;13.25;;;19.00;99.90;;;;;;4975639;28;20033;-88
2023/09/18 01:52:09;;;;;;;16.98;11.52;;;19.10;99.90;;;;;;4972274;28;20030;-88
2023/09/18 01:54:35;;;;;;;18.40;12.38;;;19.20;99.90;;;;;;4988818;28;20097;-87
2023/09/18 01:57:01;;;;;;;16.40;12.68;;;19.40;99.90;;;;;;4988308;28;20031;-87
2023/09/18 01:59:27;;;;;;;15.40;12.25;;;19.50;99.90;;;;;;4973597;28;20033;-87
2023/09/18 02:01:55;;;;;;;16.80;11.43;;;19.60;99.90;;;;;;4991357;28;20030;-88
2023/09/18 02:04:22;;;;;;;15.75;11.73;;;19.60;99.90;;;;;;4992186;28;20061;-88
2023/09/18 02:06:50;;;;;;;13.40;10.90;;;19.70;99.90;;;;;;4991537;28;20030;-87
2023/09/18 02:09:16;;;;;;;15.75;12.18;;;19.70;99.90;;;;;;4991176;28;20441;-88
2023/09/18 02:11:43;;;;;;;14.98;11.23;;;19.70;99.90;;;;;;4991573;28;20026;-88
2023/09/18 02:14:09;;;;;;;16.15;11.30;;;19.70;99.90;;;;;;4990540;28;20121;-87
2023/09/18 02:16:36;;;;;;;15.00;11.25;;;19.70;99.90;;;;;;4991053;28;20018;-88
2023/09/18 02:19:04;;;;;;;16.30;10.70;;;19.70;99.90;;;;;;4991371;28;20034;-87
2023/09/18 02:21:31;;;;;;;18.83;12.68;;;19.80;99.90;;;;;;4993214;28;20030;-88
2023/09/18 02:23:56;;;;;;;18.02;11.45;;;19.80;99.90;;;;;;4992941;28;20485;-88
2023/09/18 02:26:23;;;;;;;15.60;11.00;;;19.80;99.90;;;;;;4992146;28;20050;-89
2023/09/18 02:28:49;;;;;;;18.67;12.90;;;19.70;99.90;;;;;;4990900;28;20419;-88
2023/09/18 02:31:15;;;;;;;16.23;12.27;;;19.80;99.90;;;;;;4987259;28;20065;-88
2023/09/18 02:33:41;;;;;;;16.33;12.48;;;19.70;99.90;;;;;;4975305;28;20086;-88
2023/09/18 02:36:07;;;;;;;15.90;12.38;;;19.70;99.90;;;;;;4988780;28;20125;-86
2023/09/18 02:38:33;;;;;;;15.82;12.70;;;19.70;99.90;;;;;;4987379;28;20034;-88
2023/09/18 02:40:59;;;;;;;17.23;12.80;;;19.70;99.90;;;;;;4986361;28;20613;-87
2023/09/18 02:43:25;;;;;;;17.27;13.40;;;19.60;99.90;;;;;;4974530;28;20138;-87
2023/09/18 02:45:51;;;;;;;14.25;11.75;;;19.60;99.90;;;;;;4991735;28;20463;-87
2023/09/18 02:48:17;;;;;;;14.80;12.60;;;19.60;99.90;;;;;;4988113;28;20034;-87
2023/09/18 02:50:43;;;;;;;16.98;12.30;;;19.60;99.90;;;;;;4969868;28;20023;-87
2023/09/18 02:53:18;;;;;;;15.82;13.07;;;19.60;99.90;;;;;;4974554;28;20060;-88
2023/09/18 02:55:44;;;;;;;22.95;13.73;;;19.60;99.90;;;;;;4970425;28;20505;-88
2023/09/18 02:58:10;;;;;;;20.67;13.77;;;19.60;99.90;;;;;;4990781;28;20042;-87
2023/09/18 03:00:41;;;;;;;17.48;13.38;;;19.60;99.90;;;;;;4990856;28;20029;-87
2023/09/18 03:03:07;;;;;;;23.13;12.32;;;19.60;99.90;;;;;;4989672;28;20060;-87
2023/09/18 03:05:32;;;;;;;19.73;13.85;;;19.60;99.90;;;;;;4991469;28;20109;-86
2023/09/18 03:07:58;;;;;;;15.88;12.20;;;19.50;99.90;;;;;;4991106;28;20029;-87
2023/09/18 03:10:23;;;;;;;17.10;13.18;;;19.60;99.90;;;;;;4990758;28;20026;-87
2023/09/18 03:12:49;;;;;;;17.63;12.88;;;19.60;99.90;;;;;;4989229;28;20038;-87
2023/09/18 03:15:16;;;;;;;18.80;13.75;;;19.50;99.90;;;;;;4978081;28;20054;-86
2023/09/18 03:17:41;;;;;;;17.23;12.13;;;19.50;99.90;;;;;;4993580;28;20117;-86
2023/09/18 03:20:08;;;;;;;18.67;12.70;;;19.50;99.90;;;;;;4993221;28;20451;-85
2023/09/18 03:22:33;;;;;;;21.17;12.23;;;19.40;99.90;;;;;;4994651;28;20026;-87
2023/09/18 03:24:59;;;;;;;16.98;13.00;;;19.40;99.90;;;;;;4993751;28;20041;-86
2023/09/18 03:27:28;;;;;;;17.75;13.70;;;19.40;99.90;;;;;;4994207;28;20141;-87
2023/09/18 03:29:54;;;;;;;17.63;13.15;;;19.40;99.90;;;;;;4993279;28;20030;-87
2023/09/18 03:32:20;;;;;;;18.90;12.57;;;19.40;99.90;;;;;;4994621;28;20072;-87
2023/09/18 03:34:46;;;;;;;16.33;13.63;;;19.50;99.90;;;;;;4987503;28;20039;-87
2023/09/18 03:37:12;;;;;;;15.57;13.27;;;19.50;99.90;;;;;;4978061;28;20023;-87
2023/09/18 03:39:37;;;;;;;16.80;13.48;;;19.50;99.90;;;;;;4992955;28;20031;-87
2023/09/18 03:42:03;;;;;;;17.00;13.93;;;19.50;99.90;;;;;;4987851;28;20069;-86
2023/09/18 03:44:28;;;;;;;21.90;14.02;;;19.50;99.90;;;;;;4994508;28;20172;-87
2023/09/18 03:46:54;;;;;;;18.33;13.75;;;19.50;99.90;;;;;;4993743;28;20023;-87
2023/09/18 03:49:20;;;;;;;23.83;15.25;;;19.50;99.90;;;;;;4993395;28;20022;-88
2023/09/18 03:51:46;;;;;;;20.30;14.27;;;19.40;99.90;;;;;;4994404;28;20037;-88
2023/09/18 03:54:11;;;;;;;19.20;15.32;;;19.40;99.90;;;;;;4993146;28;20105;-87
2023/09/18 03:56:37;;;;;;;21.65;14.80;;;19.40;99.90;;;;;;4994605;28;20475;-87
2023/09/18 03:59:04;;;;;;;20.15;14.60;;;19.40;99.90;;;;;;4994326;28;20030;-87
2023/09/18 04:01:30;;;;;;;21.33;14.43;;;19.40;99.90;;;;;;4994055;28;20062;-87
2023/09/18 04:03:55;;;;;;;21.50;14.50;;;19.40;99.90;;;;;;4992866;28;20050;-88
2023/09/18 04:06:23;;;;;;;16.40;12.75;;;19.40;99.90;;;;;;4991266;28;20145;-87
2023/09/18 04:08:49;;;;;;;18.20;12.85;;;19.40;99.90;;;;;;4991159;28;20022;-87
2023/09/18 04:11:15;;;;;;;20.30;12.80;;;19.40;99.90;;;;;;4974950;28;20359;-87
2023/09/18 04:13:40;;;;;;;21.30;12.18;;;19.40;99.90;;;;;;4992969;28;20077;-87
2023/09/18 04:16:07;;;;;;;16.73;12.07;;;19.40;99.90;;;;;;4987423;28;20494;-86
2023/09/18 04:18:33;;;;;;;17.75;12.18;;;19.40;99.90;;;;;;4994480;28;20363;-88
2023/09/18 04:20:58;;;;;;;18.90;12.52;;;19.40;99.90;;;;;;4974577;28;20089;-87
2023/09/18 04:23:26;;;;;;;17.48;11.77;;;19.40;99.90;;;;;;4993955;28;20033;-87
2023/09/18 04:25:53;;;;;;;12.82;10.23;;;19.40;99.90;;;;;;4993057;28;20068;-86
2023/09/18 04:28:20;;;;;;;13.27;9.73;;;19.40;99.90;;;;;;4992692;28;20034;-87
2023/09/18 04:30:46;;;;;;;11.40;9.25;;;19.40;99.90;;;;;;4993819;28;20030;-87
2023/09/18 04:33:13;;;;;;;15.00;9.30;;;19.40;99.90;;;;;;4976829;28;20060;-87
2023/09/18 04:35:39;;;;;;;11.60;8.70;;;19.40;99.90;;;;;;4993407;28;20038;-87
2023/09/18 04:38:06;;;;;;;13.63;8.50;;;19.40;99.90;;;;;;4992527;28;20023;-87
2023/09/18 04:40:32;;;;;;;14.90;9.25;;;19.40;99.90;;;;;;4992181;28;20367;-87
2023/09/18 04:42:58;;;;;;;14.63;8.05;;;19.50;99.90;;;;;;4994116;28;20037;-88
2023/09/18 04:45:25;;;;;;;13.95;8.30;;;19.60;99.90;;;;;;4993206;28;20026;-87
2023/09/18 04:47:51;;;;;;;18.63;8.50;;;19.70;99.90;;;;;;4993033;28;20113;-87
2023/09/18 04:50:17;;;;;;;13.18;7.63;;;19.70;99.90;;;;;;4976354;28;20077;-87
2023/09/18 04:52:43;;;;;;;16.50;8.48;;;19.70;99.90;;;;;;4993274;28;20030;-87
2023/09/18 04:55:08;;;;;;;11.48;8.10;;;19.80;99.90;;;;;;4992298;28;20561;-88
2023/09/18 04:57:34;;;;;;;12.65;8.88;;;19.80;99.90;;;;;;4977014;28;20026;-87
2023/09/18 04:59:59;;;;;;;16.90;8.82;;;19.80;99.90;;;;;;4991210;28;20057;-87
2023/09/18 05:02:25;;;;;;;12.77;8.02;;;19.80;99.90;;;;;;4986759;28;20534;-88
2023/09/18 05:04:51;;;;;;;16.95;8.20;;;19.80;99.90;;;;;;4993077;28;20518;-86
2023/09/18 05:07:17;;;;;;;17.92;8.70;;;19.80;99.90;;;;;;4992261;28;20471;-88
2023/09/18 05:09:43;;;;;;;16.48;9.13;;;19.80;99.90;;;;;;4972295;28;20081;-87
2023/09/18 05:12:13;;;;;;;12.20;8.68;;;19.70;99.90;;;;;;4988182;28;20483;-88
2023/09/18 05:14:40;;;;;;;16.42;8.60;;;19.70;99.90;;;;;;4984333;28;20081;-87
2023/09/18 05:17:05;;;;;;;14.40;8.77;;;19.70;99.90;;;;;;4990819;28;20033;-88
2023/09/18 05:19:31;;;;;;;17.10;9.85;;;19.60;99.90;;;;;;4993357;28;20490;-88
2023/09/18 05:21:56;;;;;;;18.08;9.20;;;19.60;99.90;;;;;;4987405;28;20025;-88
2023/09/18 05:24:27;;;;;;;14.27;9.88;;;19.50;99.90;;;;;;4990501;28;20085;-87
2023/09/18 05:26:53;;;;;;;12.40;9.07;;;19.60;99.90;;;;;;4988354;28;20061;-88
2023/09/18 05:29:19;;;;;;;14.57;9.38;;;19.60;99.90;;;;;;4976406;28;20050;-88
2023/09/18 05:31:45;;;;;;;13.48;9.40;;;19.60;99.90;;;;;;4991138;28;20027;-88
2023/09/18 05:34:11;;;;;;;16.92;10.07;;;19.50;99.90;;;;;;4990119;28;20050;-88
2023/09/18 05:36:37;;;;;;;14.68;9.75;;;19.50;99.90;;;;;;4988523;28;20030;-88
2023/09/18 05:39:03;;;;;;;16.60;9.95;;;19.50;99.90;;;;;;5003438;28;20035;-87
2023/09/18 05:41:29;;;;;;;14.38;9.30;;;19.50;99.90;;;;;;4991511;28;20034;-87
2023/09/18 05:43:56;;;;;;;11.90;9.32;;;19.50;99.90;;;;;;4991892;28;20031;-87
2023/09/18 05:46:22;;;;;;;13.82;9.93;;;19.50;99.90;;;;;;4992148;28;20022;-87
2023/09/18 05:48:47;;;;;;;17.25;11.50;;;19.40;99.90;;;;;;4977779;28;20037;-86
2023/09/18 05:51:13;;;;;;;16.48;10.18;;;19.50;99.90;;;;;;4991937;28;20687;-87
2023/09/18 05:53:38;;;;;;;14.20;10.52;;;19.50;99.90;;;;;;4992563;28;20038;-88
2023/09/18 05:56:04;;;;;;;16.35;11.02;;;19.50;99.90;;;;;;4991135;28;20086;-87
2023/09/18 05:58:35;;;;;;;18.02;11.13;;;19.50;99.90;;;;;;4987027;28;20030;-87
2023/09/18 06:01:00;;;;;;;15.13;11.63;;;19.50;99.90;;;;;;4985869;28;20037;-87
2023/09/18 06:03:35;;;;;;;15.82;10.55;;;19.50;99.90;;;;;;4974655;28;20018;-88
2023/09/18 06:06:01;;;;;;;20.05;10.32;;;19.50;99.90;;;;;;4990609;28;20581;-87
2023/09/18 06:08:28;;;;;;;13.05;9.93;;;19.40;99.90;;;;;;4990669;28;20026;-88
2023/09/18 06:10:55;;;;;;;16.60;10.05;;;19.50;99.90;;;;;;4975171;28;20033;-87
2023/09/18 06:13:21;;;;;;;16.23;10.20;;;19.50;99.90;;;;;;4990520;28;20053;-86
2023/09/18 06:15:46;;;;;;;15.93;10.25;;;19.50;99.90;;;;;;4991033;28;20030;-88
2023/09/18 06:18:13;;;;;;;18.48;10.18;;;19.50;99.90;;;;;;4991445;28;20122;-87
2023/09/18 06:20:39;;;;;;;12.10;9.32;;;19.50;99.90;;;;;;4991831;28;20037;-88
2023/09/18 06:23:05;;;;;;;17.13;9.20;;;19.50;99.90;;;;;;4974141;28;20081;-86
2023/09/18 06:25:31;;;;;;;16.25;9.38;;;19.50;99.90;;;;;;4991248;28;20030;-87
2023/09/18 06:27:57;;;;;;;12.32;8.07;;;19.50;99.90;;;;;;4988569;28;20026;-87
2023/09/18 06:30:22;;;;;;;16.42;9.20;;;19.60;99.90;;;;;;4986708;28;20086;-87
2023/09/18 06:32:48;;;;;;;9.30;6.35;;;19.60;99.90;;;;;;4970845;28;20466;-87
2023/09/18 06:35:14;;;;;;;8.90;5.90;;;19.60;99.90;;;;;;4974619;28;20043;-87
2023/09/18 06:37:39;;;;;;;7.70;5.05;;;19.70;99.90;;;;;;4989299;28;20057;-87
2023/09/18 06:40:05;;;;;;;8.20;5.05;;;19.70;99.90;;;;;;4988608;28;20034;-87
2023/09/18 06:42:31;;;;;;;7.90;4.25;;;19.70;99.90;;;;;;4988591;28;20058;-87
2023/09/18 06:44:58;;;;;;;6.00;3.97;;;19.80;99.90;;;;;;4968402;28;20038;-86
2023/09/18 06:47:26;;;;;;;4.88;3.28;;;19.80;99.90;;;;;;4972854;28;20386;-88
2023/09/18 06:49:52;;;;;;;7.22;3.17;;;19.80;99.90;;;;;;4988693;28;20039;-87
2023/09/18 06:52:21;;;;;;;6.57;3.45;;;19.80;99.90;;;;;;4978871;28;20025;-87
2023/09/18 06:54:47;;;;;;;5.97;2.78;;;19.80;99.90;;;;;;4991726;28;20199;-88
2023/09/18 06:57:13;;;;;;;5.85;2.13;;;19.90;99.90;;;;;;4990500;28;20054;-88
2023/09/18 06:59:38;;;;;;;4.57;2.35;;;19.90;99.90;;;;;;4978225;28;20521;-89
2023/09/18 07:02:04;;;;;;;7.28;2.08;;;19.90;99.90;;;;;;4973887;28;20038;-87
2023/09/18 07:04:29;;;;;;;8.77;2.35;;;20.00;99.90;;;;;;4986893;28;20411;-88
2023/09/18 07:06:56;;;;;;;3.60;1.90;;;20.00;99.90;;;;;;4973160;28;20538;-88
2023/09/18 07:09:23;;;;;;;4.70;2.00;;;20.00;99.90;;;;;;4974565;28;20544;-87
2023/09/18 07:11:49;;;;;;;4.18;1.75;;;20.00;99.90;;;;;;4974478;28;20121;-87
2023/09/18 07:14:14;;;;;;;4.07;1.38;;;20.00;99.90;;;;;;4990385;28;20462;-88
2023/09/18 07:16:40;;;;;;;4.57;1.60;;;20.10;99.90;;;;;;4992068;28;21079;-88
2023/09/18 07:19:05;;;;;;;8.00;1.60;;;20.10;99.90;;;;;;4975244;28;20038;-87
2023/09/18 07:21:31;;;;;;;5.50;1.52;;;20.20;99.90;;;;;;4975827;28;20954;-88
2023/09/18 07:23:56;;;;;;;6.97;1.48;;;20.20;99.90;;;;;;4994743;28;20030;-88
2023/09/18 07:26:22;;;;;;;3.67;1.70;;;20.20;99.90;;;;;;4996685;28;20085;-88
2023/09/18 07:28:48;;;;;;;2.22;1.20;;;20.20;99.90;;;;;;4990441;28;20077;-87
2023/09/18 07:31:14;;;;;;;4.90;1.50;;;20.20;99.90;;;;;;4971785;28;20034;-88
2023/09/18 07:33:40;;;;;;;4.55;1.40;;;20.20;99.90;;;;;;4992586;28;20164;-89
2023/09/18 07:36:06;;;;;;;5.40;1.45;;;20.20;99.90;;;;;;4986509;28;20023;-87
2023/09/18 07:38:32;;;;;;;4.07;1.50;;;20.20;99.90;;;;;;4984705;28;20368;-87
2023/09/18 07:40:58;;;;;;;3.60;1.23;;;20.20;99.90;;;;;;4986500;28;20107;-89
2023/09/18 07:43:25;;;;;;;3.20;1.23;;;20.20;99.90;;;;;;4989746;28;20042;-89
2023/09/18 07:45:50;;;;;;;5.20;1.10;;;20.20;99.90;;;;;;4975018;28;20025;-88
2023/09/18 07:48:19;;;;;;;3.95;1.50;;;20.20;99.90;;;;;;4976431;28;20026;-88
2023/09/18 07:50:45;;;;;;;2.28;1.50;;;20.20;99.90;;;;;;4972090;28;20022;-87
2023/09/18 07:53:11;;;;;;;2.08;1.13;;;20.20;99.90;;;;;;4989016;28;20026;-88
2023/09/18 07:55:37;;;;;;;2.90;1.30;;;20.20;99.90;;;;;;4971778;28;20037;-88
2023/09/18 07:58:04;;;;;;;3.22;1.00;;;20.20;99.90;;;;;;4973194;28;20109;-89
2023/09/18 08:00:30;;;;;;;3.38;1.20;;;20.20;99.90;;;;;;4990276;28;20031;-88
2023/09/18 08:03:00;;;;;;;2.47;1.30;;;20.20;99.90;;;;;;4989371;28;20033;-88
2023/09/18 08:05:31;;;;;;;2.72;1.00;;;20.20;99.90;;;;;;4980003;28;20030;-88
2023/09/18 08:07:58;;;;;;;3.83;1.20;;;20.30;99.90;;;;;;4985865;28;20058;-88
2023/09/18 08:10:25;;;;;;;4.43;1.30;;;20.30;99.90;;;;;;4972594;28;20029;-88
2023/09/18 08:12:52;;;;;;;2.53;1.10;;;20.40;99.90;;;;;;4988501;28;20043;-88
2023/09/18 08:15:18;;;;;;;2.47;1.30;;;20.40;99.90;;;;;;4989601;28;20045;-89
2023/09/18 08:17:46;;;;;;;2.97;0.93;;;20.40;99.90;;;;;;4987374;28;20105;-88
2023/09/18 08:20:12;;;;;;;2.97;1.00;;;20.40;99.90;;;;;;4991450;28;20372;-89
2023/09/18 08:22:38;;;;;;;4.18;1.20;;;20.40;99.90;;;;;;4991307;28;20069;-90
2023/09/18 08:25:05;;;;;;;1.95;0.90;;;20.50;99.90;;;;;;4993475;28;20030;-90
2023/09/18 08:27:31;;;;;;;3.88;0.90;;;20.50;99.90;;;;;;4992802;28;20534;-89
2023/09/18 08:29:56;;;;;;;1.67;0.82;;;20.50;99.90;;;;;;4993093;28;20034;-90
2023/09/18 08:32:22;;;;;;;3.15;1.17;;;20.50;99.90;;;;;;4984928;28;20132;-90
2023/09/18 08:34:47;;;;;;;2.47;1.00;;;20.50;99.90;;;;;;4983053;28;20039;-88
2023/09/18 08:37:13;;;;;;;3.47;1.10;;;20.50;99.90;;;;;;4985442;28;20033;-89
2023/09/18 08:39:38;;;;;;;1.80;0.90;;;20.50;99.90;;;;;;4985676;28;20034;-87
2023/09/18 08:42:07;;;;;;;4.10;1.17;;;20.60;99.90;;;;;;4987253;28;20083;-87
2023/09/18 08:44:33;;;;;;;2.65;0.75;;;20.70;99.90;;;;;;4985494;28;20050;-88
2023/09/18 08:46:59;;;;;;;1.90;0.80;;;20.80;99.90;;;;;;4963570;28;20030;-87
2023/09/18 08:49:26;;;;;;;2.63;0.90;;;20.80;99.90;;;;;;4969709;28;20035;-88
2023/09/18 08:51:54;;;;;;;3.95;1.27;;;20.80;99.90;;;;;;4985336;28;20426;-89
2023/09/18 08:54:24;;;;;;;3.60;1.10;;;20.70;99.90;;;;;;4972265;28;20039;-88
2023/09/18 08:56:54;;;;;;;2.70;1.02;;;20.70;99.90;;;;;;4986496;28;20814;-89
2023/09/18 08:59:22;;;;;;;2.45;1.02;;;20.80;99.90;;;;;;4963022;28;20029;-89
2023/09/18 09:01:47;;;;;;;2.63;1.23;;;20.80;99.90;;;;;;4988272;28;20023;-89
2023/09/18 09:04:13;;;;;;;4.32;0.90;;;20.80;99.90;;;;;;4969407;28;20042;-89
2023/09/18 09:06:39;;;;;;;2.20;0.90;;;20.80;99.90;;;;;;4988450;28;20614;-88
2023/09/18 09:09:04;;;;;;;4.07;1.00;;;20.80;99.90;;;;;;4987965;28;20041;-89
2023/09/18 09:11:30;;;;;;;5.80;0.90;;;20.70;99.90;;;;;;4968525;28;20027;-88
2023/09/18 09:14:18;;;;;;;3.97;0.90;;;20.70;99.90;;;;;;4970643;28;20408;-89
2023/09/18 09:16:51;;;;;;;4.43;0.98;;;20.80;99.90;;;;;;4982345;28;20037;-89
2023/09/18 09:19:18;;;;;;;3.40;0.77;;;20.80;99.90;;;;;;4969312;28;20031;-89
2023/09/18 09:21:44;;;;;;;3.33;0.77;;;20.90;99.90;;;;;;4965080;28;20909;-88
2023/09/18 09:24:18;;;;;;;3.72;0.88;;;20.90;99.90;;;;;;4983524;28;20033;-89
2023/09/18 09:26:43;;;;;;;8.43;1.48;;;21.10;99.90;;;;;;4983285;28;20023;-89
2023/09/18 09:29:20;;;;;;;3.33;1.00;;;21.00;99.90;;;;;;4988117;28;20033;-89
2023/09/18 09:31:46;;;;;;;2.00;0.90;;;21.00;99.90;;;;;;4983859;28;20046;-89
2023/09/18 09:34:12;;;;;;;2.75;0.90;;;21.10;99.90;;;;;;4971080;28;20133;-89
2023/09/18 09:36:52;;;;;;;4.05;0.73;;;21.30;99.90;;;;;;4972074;28;20030;-90
2023/09/18 09:39:18;;;;;;;3.58;0.82;;;21.40;99.90;;;;;;4987058;28;20046;-88
2023/09/18 09:41:46;;;;;;;3.63;0.80;;;21.40;99.90;;;;;;4988201;28;20090;-89
2023/09/18 09:44:13;;;;;;;2.90;0.77;;;21.50;99.90;;;;;;4988423;28;20042;-90
2023/09/18 09:46:46;;;;;;;2.22;0.80;;;21.60;99.90;;;;;;4986135;28;20439;-89
2023/09/18 09:49:11;;;;;;;3.30;1.13;;;21.70;99.90;;;;;;4970317;28;20030;-89
2023/09/18 09:51:37;;;;;;;3.20;0.80;;;21.80;99.90;;;;;;4970302;28;20038;-90
2023/09/18 09:54:02;;;;;;;2.53;1.00;;;21.90;99.90;;;;;;4984458;28;20603;-89
2023/09/18 09:56:41;;;;;;;4.60;0.70;;;21.90;99.90;;;;;;4982517;28;20023;-90
2023/09/18 09:59:11;;;;;;;3.40;0.65;;;22.00;99.90;;;;;;4986878;28;20035;-90
2023/09/18 10:01:37;;;;;;;1.88;0.75;;;22.00;99.90;;;;;;4972585;28;20033;-89
2023/09/18 10:04:07;;;;;;;4.07;0.98;;;22.20;99.90;;;;;;4979744;28;20031;-89
2023/09/18 10:06:35;;;;;;;4.57;1.10;;;22.20;99.90;;;;;;4985573;28;20034;-89
2023/09/18 10:09:07;;;;;;;3.72;0.90;;;22.10;99.90;;;;;;4986824;28;20114;-89
2023/09/18 10:11:36;;;;;;;5.47;1.38;;;22.10;99.90;;;;;;4988569;28;20023;-89
2023/09/18 10:14:12;;;;;;;5.15;1.40;;;22.20;99.90;;;;;;4980532;28;20048;-89
2023/09/18 10:16:41;;;;;;;4.45;1.20;;;22.20;99.90;;;;;;4988079;28;20055;-89
2023/09/18 10:19:40;;;;;;;3.75;1.27;;;22.20;99.90;;;;;;4987000;28;20023;-89
2023/09/18 10:22:32;;;;;;;3.85;1.48;;;22.20;99.90;;;;;;4970054;28;20113;-89
2023/09/18 10:25:12;;;;;;;3.70;1.00;;;22.30;99.90;;;;;;4992173;28;20035;-88
2023/09/18 10:27:40;;;;;;;5.15;1.27;;;22.40;99.90;;;;;;4976551;28;20033;-89
2023/09/18 10:30:10;;;;;;;4.30;1.13;;;22.40;99.90;;;;;;4971200;28;20027;-89
2023/09/18 10:32:39;;;;;;;5.10;1.08;;;22.50;99.90;;;;;;5311029;23;20059;-89
2023/09/18 10:35:08;;;;;;;4.68;1.42;;;22.70;99.90;;;;;;4956922;28;20050;-88
2023/09/18 10:37:34;;;;;;;4.28;1.45;;;22.70;99.90;;;;;;4956383;29;20023;-89
2023/09/18 10:40:00;;;;;;;3.58;1.35;;;22.70;99.90;;;;;;4957208;29;20031;-90
2023/09/18 10:42:27;;;;;;;6.22;1.40;;;22.70;99.90;;;;;;4957907;29;20027;-89
2023/09/18 10:44:56;;;;;;;3.47;1.40;;;22.70;99.90;;;;;;4957283;28;20122;-89
2023/09/18 10:47:23;;;;;;;2.30;1.15;;;22.80;99.90;;;;;;4956516;29;20020;-88
2023/09/18 10:49:50;;;;;;;4.97;1.20;;;22.90;99.90;;;;;;4955572;29;20031;-88
2023/09/18 10:52:15;;;;;;;4.47;1.25;;;23.00;99.90;;;;;;4956123;29;20041;-88
2023/09/18 10:54:42;;;;;;;3.47;1.10;;;23.20;99.90;;;;;;4956148;29;20046;-90
2023/09/18 10:57:07;;;;;;;3.00;1.05;;;23.40;99.90;;;;;;4956403;29;20024;-89
2023/09/18 10:59:33;;;;;;;3.53;1.30;;;23.60;99.90;;;;;;4955774;29;20059;-89
2023/09/18 11:02:07;;;;;;;3.45;1.25;;;23.70;99.90;;;;;;4956170;29;20114;-89
2023/09/18 11:04:33;;;;;;;3.40;0.82;;;23.80;99.90;;;;;;4935210;29;20028;-89
2023/09/18 11:06:59;;;;;;;4.45;1.00;;;23.80;99.90;;;;;;4955846;29;20086;-88
2023/09/18 11:09:27;;;;;;;4.43;1.23;;;23.80;99.90;;;;;;4956336;29;20490;-88
2023/09/18 11:11:58;;;;;;;2.88;0.90;;;23.80;99.90;;;;;;4955378;29;20031;-89
2023/09/18 11:14:56;;;;;;;4.43;1.00;;;24.00;99.90;;;;;;4956217;29;20042;-90
2023/09/18 11:17:39;;;;;;;3.08;1.02;;;23.90;99.90;;;;;;4937799;29;20325;-88
2023/09/18 11:20:09;;;;;;;2.45;0.90;;;23.70;99.90;;;;;;4954483;29;20127;-87
2023/09/18 11:22:36;;;;;;;4.07;1.38;;;23.40;99.90;;;;;;4938202;29;20023;-88
2023/09/18 11:25:42;;;;;;;4.28;1.30;;;23.10;99.90;;;;;;4956025;29;20051;-87
2023/09/18 11:28:13;;;;;;;3.67;1.30;;;22.70;99.90;;;;;;4954998;28;20031;-88
2023/09/18 11:30:49;;;;;;;4.55;1.20;;;22.40;99.90;;;;;;4952251;29;20030;-88
2023/09/18 11:33:30;;;;;;;4.35;1.77;;;22.30;99.90;;;;;;4934582;29;20484;-87
2023/09/18 11:35:56;;;;;;;3.92;1.65;;;22.30;99.90;;;;;;4955840;29;20024;-87
2023/09/18 11:38:23;;;;;;;4.82;1.90;;;22.50;99.90;;;;;;4940072;29;20045;-86
2023/09/18 11:40:49;;;;;;;5.90;2.53;;;22.60;99.90;;;;;;4939579;29;20115;-87
2023/09/18 11:43:25;;;;;;;3.30;1.40;;;22.70;99.90;;;;;;4939774;29;20032;-87
2023/09/18 11:45:56;;;;;;;4.07;1.42;;;22.70;99.90;;;;;;4942541;29;20086;-86
2023/09/18 11:48:29;;;;;;;5.78;1.48;;;22.60;99.90;;;;;;4932217;29;20042;-86
2023/09/18 11:50:56;;;;;;;4.55;1.23;;;22.50;99.90;;;;;;4954050;29;20030;-86
2023/09/18 11:53:24;;;;;;;3.35;1.30;;;22.50;99.90;;;;;;4955275;29;20130;-87
2023/09/18 11:55:49;;;;;;;4.40;2.13;;;22.60;99.90;;;;;;4954743;29;20042;-87
2023/09/18 11:58:15;;;;;;;2.38;1.40;;;22.60;99.90;;;;;;4955051;29;20723;-87
2023/09/18 12:00:47;;;;;;;3.50;1.17;;;22.70;99.90;;;;;;4953677;28;20505;-86
2023/09/18 12:03:24;;;;;;;5.82;2.10;;;23.00;99.90;;;;;;4960292;28;20483;-86
2023/09/18 12:05:58;;;;;;;4.32;1.58;;;23.20;99.90;;;;;;4955297;29;20039;-87
2023/09/18 12:08:27;;;;;;;2.95;1.50;;;23.20;99.90;;;;;;4937892;29;20074;-87
2023/09/18 12:10:54;;;;;;;9.35;1.70;;;23.10;99.90;;;;;;4948987;29;20031;-88
2023/09/18 12:13:20;;;;;;;5.82;1.45;;;23.20;99.90;;;;;;4955397;29;20364;-87
2023/09/18 12:15:47;;;;;;;2.60;1.10;;;23.10;99.90;;;;;;4952783;28;20031;-86
2023/09/18 12:18:15;;;;;;;3.88;1.40;;;23.20;99.90;;;;;;4950915;28;20114;-87
2023/09/18 12:20:48;;;;;;;2.92;1.42;;;23.20;99.90;;;;;;4950442;29;20114;-87
2023/09/18 12:23:15;;;;;;;4.75;1.40;;;23.20;99.90;;;;;;4941006;29;20058;-87
2023/09/18 12:25:41;;;;;;;4.65;1.23;;;23.30;99.90;;;;;;4954454;28;20387;-86
2023/09/18 12:28:08;;;;;;;4.72;1.65;;;23.40;99.90;;;;;;4954193;29;20391;-87
2023/09/18 12:30:34;;;;;;;3.10;0.93;;;23.50;99.90;;;;;;4954945;29;20027;-87
2023/09/18 12:33:00;;;;;;;7.40;1.40;;;23.50;99.90;;;;;;4957790;28;20047;-86
2023/09/18 12:35:29;;;;;;;4.05;1.38;;;23.40;99.90;;;;;;4951696;29;20040;-87
2023/09/18 12:37:55;;;;;;;4.43;1.42;;;23.50;99.90;;;;;;4945820;29;20032;-86
2023/09/18 12:40:29;;;;;;;3.80;1.10;;;23.50;99.90;;;;;;4962435;28;20035;-87